Ralf Busch

Scout - SC Freiburg
3 Dec 2028
Sunday
Process

Personality

Adaptability (11) Ambition (4) Controversy (6) Loyalty (16) Pressure (2) Professionalism (9) Sportsmanship (17) Temperament (16)

Profile

Coaching Style Democratic
License Continental A
Determination 11
Man Management 9
Motivating 10
Discipline 8
Job Satisfaction
100%
Fatigue
0%
Role Scout
Wage 94.3K p/w
Contract 14.03.2029

Performance

Behaviour Good
Training Effectiveness
45%
Player Development
45%
Injury Prevention
50%
Tactical Implementation
45%

Recent Events

Attended a recruitment meeting now
Assessed a player now
Assessed a player now
Assessed a player now
Observed a match now
Observed a match now
Observed a match now
Observed a match now

Currently Monitoring

67
Player Club Status Ability Confidence Watched Last Observed Latest Vote
Álvaro Montoro Botafogo Active 144 / 140 40% 12 02.12.2028 -
Franco Mastantuono Córdoba Active 146 / 149 40% 2 02.12.2028 -
Jacob Peter Hödl Sturm Graz Active 129 / 132 40% 5 01.12.2028 -
Ibrahim Mbaye Queens Park Rangers Active 141 / 148 40% 3 01.12.2028 -
Geovany Quenda Watford Active 157 / 157 40% 8 30.11.2028 -
Harry Gray Harrogate Town Active 130 / 138 40% 3 30.11.2028 -
Ryan McAidoo Oldham Athletic Active 130 / 137 40% 1 30.11.2028 -
Alex Verón Vélez Active 110 / 118 40% 9 29.11.2028 -
Hugo Camberos Dorados Active 129 / 139 40% 4 29.11.2028 -
Aarón Ochoa Málaga Active 121 / 132 40% 2 29.11.2028 -
Matías Arias Vélez Active 121 / 125 40% 5 27.11.2028 -
Babis Kostoulas Oxford United Active 145 / 151 40% 5 23.11.2028 -
Rio Ngumoha Plymouth Argyle Active 147 / 149 40% 7 23.11.2028 -
Celías Ingenthron Platense Active 114 / 130 40% 3 22.11.2028 -
Luka Andrade Montevideo City Torque Active 107 / 114 40% 4 22.11.2028 -
Luis Otávio Orlando City Active 122 / 123 40% 5 20.11.2028 -
Santiago Segovia Rosario Central Active 110 / 124 40% 5 16.11.2028 -
Mihajlo Cvetković Club Brugge Active 136 / 134 40% 1 16.11.2028 -
Estêvão Portsmouth Active 157 / 157 40% 3 13.11.2028 -
Julian Hall Real Salt Lake Active 105 / 114 40% 5 08.11.2028 -
Vakhtang Salia Shonan Bellmare Active 106 / 106 40% 6 08.11.2028 -
Yan Diomandé Oviedo Active 162 / 166 40% 4 06.11.2028 -
Lucca São Paulo Active 124 / 123 40% 3 06.11.2028 -
Johannes Moser Sturm Graz Active 109 / 118 40% 2 05.11.2028 -
Mikey Moore Stockport County Active 139 / 148 40% 5 30.10.2028 -
Sebastian Rodriguez Houston Dynamo Active 120 / 125 40% 2 25.10.2028 -
Lisandro Piñero Banfield Active 130 / 126 40% 5 23.10.2028 -
Martín Jiménez Iquique Active 101 / 107 40% 2 23.10.2028 -
Tahiel Peralta Racing Club Active 108 / 117 40% 4 22.10.2028 -
Ethan Nwaneri Arsenal Active 155 / 159 40% 4 22.10.2028 -
Olivier Mambwa Young Boys Active 114 / 124 40% 2 17.10.2028 -
Valentino Huertas Morón Active 101 / 106 40% 2 15.10.2028 -
Matias Siltanen Malmo FF Active 129 / 131 40% 2 11.10.2028 -
Peyton Miller New England Revolution Active 121 / 125 40% 1 06.10.2028 -
Pablo Lago Juventud Active 101 / 108 40% 1 11.09.2028 -
Nicolás Barros Schelotto Gimnasia La Plata Active 126 / 123 40% 1 06.09.2028 -
Carl Klaus St. Pauli Report Ready 112 / 113 79% 1 28.08.2028 -
Mamoutou Berthé US Bougouba Lost 105 / 112 40% 1 21.08.2028 -
Otto Stange Borussia Mönchengladbach Active 133 / 137 40% 1 21.08.2028 -
Honest Ahanor Atalanta Active 141 / 149 40% 4 14.08.2028 -
Jake Evans Crewe Alexandra Negotiating 113 / 126 40% 3 01.08.2028 -
André Miranda Porto Active 118 / 124 40% 1 01.08.2028 -
Héctor Fort Real Sociedad Active 149 / 148 40% 7 03.07.2028 -
Andrey Ivlev Nizhniy Novgorod Active 115 / 122 40% 1 03.07.2028 -
Giovanni Leoni Lincoln City Active 142 / 147 40% 3 26.06.2028 -
Josh Nichols Oldham Athletic Active 125 / 127 40% 6 26.06.2028 -
Joël Schmied Köln Report Ready 135 / 133 79% 1 26.06.2028 -
Ayden Heaven Portsmouth Active 145 / 149 40% 3 19.06.2028 -
Igor Tyjon Barrow AFC Active 115 / 124 40% 1 12.06.2028 -
Trey Nyoni Rotherham United Active 139 / 148 40% 3 31.05.2028 -
Jorge Salinas Racing Santander Active 134 / 139 40% 5 30.05.2028 -
Martim Cunha Porto Active 105 / 113 40% 4 28.05.2028 -
Daniel Banjaqui Benfica Active 125 / 129 40% 2 27.05.2028 -
Andrea Cogoni Cosenza Active 108 / 118 40% 1 26.05.2028 -
Riquelme Thompson-Jones Accrington Stanley Active 113 / 118 40% 4 24.05.2028 -
Marc Bernal Sevilla Active 147 / 151 40% 3 20.05.2028 -
Kiani Inge Groningen Active 110 / 117 40% 1 20.05.2028 -
Pau Cubarsí Real Sociedad Active 164 / 163 40% 2 17.05.2028 -
Andrija Bulatović Chamois Niortais Active 123 / 131 40% 2 10.05.2028 -
Givairo Read Feyenoord Active 148 / 152 40% 3 08.05.2028 -
Jan Bürger Northampton Town Active 124 / 124 40% 1 08.05.2028 -
Bernardo Lima Porto Active 106 / 116 40% 1 05.05.2028 -
Illaijh de Ruijter ADO Den Haag Active 121 / 128 40% 1 02.05.2028 -
Jorthy Mokio ADO Den Haag Active 132 / 136 40% 2 01.05.2028 -
Christos Mouzakitis Hull City Active 137 / 139 40% 1 10.04.2028 -
Tyler Fletcher Rotherham United Active 109 / 115 40% 1 06.04.2028 -
Adam Hložek TSG Hoffenheim Active 138 / 141 69% 1 01.06.2027 -